Weather History for Salem, IL

Change the Weather History Date:

Sunday, February 3, 2013

  Actual Average Record
Temperature  
Mean Temperature 30 °F -  
Max Temperature 33 °F 38 °F 63 °F (1992)
Min Temperature 26 °F 20 °F -7 °F (1965)
Degree Days  
Heating Degree Days 36    
Moisture  
Dew Point 24 °F    
Average Humidity 81    
Maximum Humidity 100    
Minimum Humidity 63    
Precipitation  
Precipitation 0.00 in - - ()
Sea Level Pressure  
Sea Level Pressure 30.09 in    
Wind  
Wind Speed 6 mph (West)    
Max Wind Speed 23 mph    
Max Gust Speed 31 mph    
Visibility 8 miles    
Events Snow    
Averages and records for this station are not official NWS values.
T = Trace of Precipitation, MM = Missing Value Source: NWS Daily Summary

Daily Weather History Graph

Daily Weather History Graph

Search for Another Location

Airport:

Trip Planner

Search our weather history database for the weather conditions in past years. The results will help you decide how hot, cold, wet, or windy it might be!

Date:

Astronomy

Feb. 03, 2013 Rise Set
Actual Time 6:59 AM CST 5:20 PM CST
Civil Twilight 6:31 AM CST 5:48 PM CST
Nautical Twilight 5:59 AM CST 6:19 PM CST
Astronomical Twilight 5:28 AM CST 6:51 PM CST
Moon 12:26 AM CST (2/3) 10:57 AM CST (2/3)
Length of Visible Light 11h 16m
Length of Day
10h 20m
Waning Gibbous, 48% of the Moon is Illuminated
Feb 3
Waning Gibbous
Feb 10
New
Feb 17
First Quarter
Feb 25
Full
Mar 4
Last Quarter

Hourly Weather History & Observations

Time (CST) Temp. Windchill Dew Point Humidity Pressure Visibility Wind Dir Wind Speed Gust Speed Precip Events Conditions
12:15 AM 28.4 °F - 22.8 °F 80% 30.07 in 10.0 mi Calm Calm - N/A   Overcast
12:35 AM 28.4 °F - 23.0 °F 80% 30.06 in 10.0 mi Calm Calm - N/A   Overcast
12:55 AM 28.2 °F - 23.9 °F 84% 30.05 in 3.0 mi Calm Calm - N/A Snow Light Snow
1:15 AM 27.3 °F 23.4 °F 25.3 °F 92% 30.04 in 1.0 mi ESE 3.5 mph - N/A Snow Snow
1:35 AM 27.1 °F - 27.0 °F 99% 30.04 in 1.2 mi Calm Calm - N/A Snow Snow
1:55 AM 27.1 °F 23.2 °F 27.1 °F 100% 30.05 in 1.0 mi SSW 3.5 mph - N/A Snow Snow
2:15 AM 27.3 °F - 27.3 °F 100% 30.03 in 5.0 mi Calm Calm - N/A Snow Light Snow
2:35 AM 27.3 °F - 27.3 °F 100% 30.03 in 2.5 mi Calm Calm - N/A Snow Light Snow
2:55 AM 27.5 °F 22.2 °F 27.5 °F 100% 30.02 in 5.0 mi South 4.6 mph - N/A   Overcast
3:15 AM 27.9 °F 22.6 °F 27.9 °F 100% 30.02 in 5.0 mi SSW 4.6 mph - N/A Snow Light Snow
3:35 AM 28.2 °F 22.0 °F 28.2 °F 100% 30.01 in 7.0 mi SSW 5.8 mph - N/A   Overcast
3:55 AM 28.2 °F 24.4 °F 28.2 °F 100% 30.00 in 5.0 mi South 3.5 mph - N/A   Overcast
4:15 AM 28.4 °F 23.3 °F 28.4 °F 100% 30.00 in 5.0 mi SSW 4.6 mph - N/A   Overcast
4:35 AM 28.9 °F 25.2 °F 28.9 °F 100% 30.00 in 5.0 mi SSW 3.5 mph - N/A   Overcast
4:55 AM 29.1 °F 25.4 °F 29.1 °F 100% 30.00 in 5.0 mi SW 3.5 mph - N/A   Overcast
5:15 AM 29.3 °F 25.6 °F 29.3 °F 100% 30.00 in 5.0 mi WSW 3.5 mph - N/A   Overcast
5:35 AM 29.8 °F 21.5 °F 29.8 °F 100% 30.01 in 4.0 mi WSW 9.2 mph - N/A   Overcast
5:55 AM 30.2 °F 23.4 °F 30.2 °F 100% 30.01 in 3.0 mi West 6.9 mph - N/A   Overcast
6:15 AM 30.7 °F 23.3 °F 30.7 °F 100% 30.02 in 4.0 mi WNW 8.1 mph - N/A   Overcast
6:35 AM 32.0 °F 22.5 °F 31.3 °F 97% 30.02 in 7.0 mi WNW 12.7 mph 17.3 mph N/A   Overcast
6:55 AM 32.0 °F 23.0 °F 30.6 °F 94% 30.02 in 7.0 mi WNW 11.5 mph - N/A   Overcast
7:15 AM 32.0 °F 24.2 °F 30.7 °F 95% 30.03 in 7.0 mi NW 9.2 mph - N/A   Overcast
7:35 AM 32.0 °F 24.2 °F 30.7 °F 95% 30.03 in 7.0 mi WNW 9.2 mph - N/A   Overcast
7:55 AM 32.2 °F 23.8 °F 30.4 °F 93% 30.03 in 7.0 mi WNW 10.4 mph - N/A   Overcast
8:15 AM 32.5 °F 24.8 °F 30.2 °F 91% 30.04 in 7.0 mi WNW 9.2 mph - N/A   Overcast
8:35 AM 32.0 °F 23.6 °F 30.2 °F 93% 30.05 in 10.0 mi NW 10.4 mph - N/A   Overcast
8:55 AM 32.9 °F 24.1 °F 29.7 °F 88% 30.05 in 10.0 mi NW 11.5 mph - N/A   Overcast
9:15 AM 32.9 °F 24.7 °F 29.5 °F 87% 30.06 in 10.0 mi WNW 10.4 mph - N/A   Overcast
9:35 AM 32.9 °F 23.7 °F 29.3 °F 87% 30.08 in 7.0 mi NW 12.7 mph 19.6 mph N/A   Overcast
9:55 AM 31.6 °F 21.2 °F 26.6 °F 82% 30.09 in 7.0 mi NNW 15.0 mph 24.2 mph N/A   Overcast
10:15 AM 31.6 °F 21.6 °F 26.8 °F 82% 30.10 in 10.0 mi NNW 13.8 mph 19.6 mph N/A   Overcast
10:35 AM 31.8 °F 21.4 °F 27.0 °F 82% 30.11 in 10.0 mi WNW 15.0 mph 20.7 mph N/A   Overcast
10:55 AM 32.0 °F 21.2 °F 25.5 °F 77% 30.13 in 10.0 mi NW 16.1 mph 20.7 mph N/A   Overcast
11:15 AM 31.6 °F 21.6 °F 24.8 °F 76% 30.13 in 10.0 mi NW 13.8 mph 23.0 mph N/A   Overcast
11:35 AM 31.8 °F 19.0 °F 24.1 °F 73% 30.14 in 10.0 mi WNW 23.0 mph 31.1 mph N/A   Overcast
11:55 AM 32.0 °F 20.5 °F 23.7 °F 71% 30.14 in 10.0 mi WNW 18.4 mph 27.6 mph N/A   Overcast
12:15 PM 31.1 °F 18.6 °F 22.8 °F 71% 30.15 in 10.0 mi NW 20.7 mph 26.5 mph N/A   Overcast
12:35 PM 31.6 °F 20.4 °F 21.4 °F 66% 30.15 in 10.0 mi NW 17.3 mph 20.7 mph N/A   Mostly Cloudy
12:55 PM 32.0 °F 21.6 °F 21.2 °F 64% 30.15 in 10.0 mi NW 15.0 mph 23.0 mph N/A   Mostly Cloudy
1:15 PM 32.0 °F 20.8 °F 20.8 °F 63% 30.16 in 10.0 mi WNW 17.3 mph 25.3 mph N/A   Mostly Cloudy
1:35 PM 32.0 °F 21.6 °F 21.2 °F 64% 30.15 in 10.0 mi NW 15.0 mph 25.3 mph N/A   Mostly Cloudy
1:55 PM 32.0 °F 23.0 °F 20.8 °F 63% 30.15 in 10.0 mi WNW 11.5 mph 23.0 mph N/A   Scattered Clouds
2:15 PM 32.2 °F 21.4 °F 20.8 °F 63% 30.15 in 10.0 mi WNW 16.1 mph 21.9 mph N/A   Scattered Clouds
2:35 PM 32.4 °F 22.5 °F 22.8 °F 68% 30.15 in 10.0 mi West 13.8 mph - N/A   Scattered Clouds
2:55 PM 32.4 °F 21.7 °F 22.6 °F 67% 30.15 in 10.0 mi West 16.1 mph - N/A   Scattered Clouds
3:15 PM 32.5 °F 23.7 °F 21.7 °F 64% 30.16 in 10.0 mi NW 11.5 mph 18.4 mph N/A   Scattered Clouds
3:35 PM 33.8 °F 27.0 °F 23.0 °F 65% 30.16 in 10.0 mi WNW 8.1 mph - N/A   Scattered Clouds
3:55 PM 32.9 °F 24.7 °F 22.1 °F 65% 30.16 in 10.0 mi West 10.4 mph - N/A   Clear
4:15 PM 32.9 °F 25.3 °F 22.3 °F 65% 30.16 in 10.0 mi West 9.2 mph - N/A   Clear
4:35 PM 32.4 °F 24.6 °F 22.8 °F 68% 30.15 in 10.0 mi West 9.2 mph - N/A   Clear
4:55 PM 32.0 °F 26.4 °F 22.1 °F 67% 30.15 in 10.0 mi West 5.8 mph - N/A   Clear
5:15 PM 30.7 °F 26.0 °F 21.9 °F 70% 30.15 in 10.0 mi WSW 4.6 mph - N/A   Clear
5:35 PM 29.3 °F 24.3 °F 21.4 °F 72% 30.15 in 10.0 mi WSW 4.6 mph - N/A   Clear
5:55 PM 28.0 °F 20.8 °F 21.0 °F 75% 30.15 in 10.0 mi SW 6.9 mph - N/A   Clear
6:15 PM 28.0 °F 21.7 °F 20.5 °F 73% 30.15 in 10.0 mi SW 5.8 mph - N/A   Clear
6:35 PM 27.3 °F 19.9 °F 20.3 °F 75% 30.15 in 10.0 mi SW 6.9 mph - N/A   Clear
6:55 PM 27.1 °F 18.9 °F 19.9 °F 74% 30.15 in 10.0 mi SW 8.1 mph - N/A   Clear
7:15 PM 27.1 °F 20.7 °F 20.1 °F 75% 30.15 in 10.0 mi South 5.8 mph - N/A   Clear
7:35 PM 28.0 °F 21.7 °F 20.1 °F 72% 30.13 in 10.0 mi South 5.8 mph - N/A   Clear
7:55 PM 28.0 °F 22.8 °F 19.8 °F 71% 30.14 in 10.0 mi SSW 4.6 mph - N/A   Clear
8:15 PM 26.6 °F 20.0 °F 19.4 °F 74% 30.14 in 10.0 mi SSW 5.8 mph - N/A   Clear
8:35 PM 27.3 °F 22.0 °F 19.4 °F 72% 30.13 in 10.0 mi South 4.6 mph - N/A   Clear
8:55 PM 27.3 °F 20.9 °F 19.4 °F 72% 30.13 in 10.0 mi South 5.8 mph - N/A   Clear
9:15 PM 27.7 °F 23.8 °F 19.4 °F 71% 30.12 in 10.0 mi East 3.5 mph - N/A   Clear
9:35 PM 26.2 °F - 20.1 °F 78% 30.12 in 10.0 mi Calm Calm - N/A   Clear
9:55 PM 27.1 °F 23.2 °F 19.4 °F 73% 30.10 in 10.0 mi ESE 3.5 mph - N/A   Clear
10:15 PM 27.5 °F - 19.2 °F 71% 30.10 in 10.0 mi Calm Calm - N/A   Clear
10:35 PM 26.6 °F 22.6 °F 19.6 °F 75% 30.10 in 10.0 mi SSE 3.5 mph - N/A   Clear
10:55 PM 26.4 °F 20.9 °F 19.8 °F 76% 30.09 in 10.0 mi SE 4.6 mph - N/A   Clear
11:15 PM 27.0 °F 23.0 °F 19.2 °F 73% 30.08 in 10.0 mi SE 3.5 mph - N/A   Clear
11:35 PM 27.3 °F 22.0 °F 19.0 °F 71% 30.07 in 10.0 mi SSE 4.6 mph - N/A   Clear
11:55 PM 27.1 °F 21.8 °F 19.2 °F 72% 30.06 in 10.0 mi SE 4.6 mph - N/A   Clear